Weltys, Pennsylvania
Current Conditions -  °F | °C
As of 12:53 AM on Monday 26 Jan 2015 (Local Time) from KRYT Reporting Station
Light Snow Light Snow  
Wind Chill: 26°   Ceiling: 400
Heat Index: 33°   Visibility: 1.2mi
Dew Point: 31°   Wind: 8mph
Humidity: 92%   Direction: 60°ENE
Pressure: 29.82"   Gusts: NA
Location:  39.7777°N, 77.5693°W
Report Text: KRYT 260553Z AUTO 06007KT 1 1/4SM -SN BR OVC004 01/M01 A2982 RMK AO2 SLP110 P0001 60022 T00061006 10022 20006 58002 $
Loading
Personal Weather Stations






























Interactive Weather Map New forecast layout! Learn more

10-Day Weather Forecast

Advertisements
Track Severe Weather on mobile